createdAt,value
2018-04-28T00:00:44.688Z,11.90
2018-04-28T00:01:44.655Z,12.03
2018-04-28T00:02:44.624Z,12.01
2018-04-28T00:03:44.599Z,12.04
2018-04-28T00:04:44.574Z,12.03
2018-04-28T00:05:44.552Z,11.94
2018-04-28T00:06:44.520Z,12.00
2018-04-28T00:07:44.497Z,11.88
2018-04-28T00:08:44.472Z,11.98
2018-04-28T00:09:44.492Z,11.85
2018-04-28T00:10:44.416Z,11.93
2018-04-28T00:11:44.390Z,11.93
2018-04-28T00:12:44.365Z,11.79
2018-04-28T00:13:44.338Z,11.87
2018-04-28T00:14:44.313Z,11.75
2018-04-28T00:15:44.286Z,11.72
2018-04-28T00:16:44.260Z,11.74
2018-04-28T00:17:44.234Z,11.69
2018-04-28T00:18:44.208Z,11.81
2018-04-28T00:19:44.183Z,11.67
2018-04-28T00:20:44.156Z,11.67
2018-04-28T00:21:44.129Z,11.62
2018-04-28T00:22:44.110Z,11.66
2018-04-28T00:23:44.077Z,11.49
2018-04-28T00:24:44.051Z,11.53
2018-04-28T00:25:44.024Z,11.45
2018-04-28T00:26:44.000Z,11.54
2018-04-28T00:27:43.975Z,11.48
2018-04-28T00:28:43.950Z,11.46
2018-04-28T00:29:43.920Z,11.42
2018-04-28T00:30:43.893Z,11.48
2018-04-28T00:31:43.870Z,11.41
2018-04-28T00:32:43.843Z,11.27
2018-04-28T00:33:43.814Z,11.28
2018-04-28T00:34:43.788Z,11.33
2018-04-28T00:35:43.762Z,11.35
2018-04-28T00:36:43.736Z,11.24
2018-04-28T00:37:43.709Z,11.27
2018-04-28T00:38:43.683Z,11.27
2018-04-28T00:39:43.657Z,11.33
2018-04-28T00:40:43.632Z,11.24
2018-04-28T00:41:43.603Z,11.27
2018-04-28T00:42:43.577Z,11.13
2018-04-28T00:43:43.551Z,11.12
2018-04-28T00:44:43.525Z,11.09
2018-04-28T00:45:43.500Z,11.13
2018-04-28T00:46:43.473Z,11.12
2018-04-28T00:47:43.445Z,11.27
2018-04-28T00:48:43.419Z,11.19
2018-04-28T00:49:43.397Z,11.20
2018-04-28T00:50:43.368Z,11.13
2018-04-28T00:51:43.344Z,11.13
2018-04-28T00:52:43.313Z,11.09
2018-04-28T00:53:43.286Z,11.08
2018-04-28T00:54:43.260Z,11.13
2018-04-28T00:55:43.234Z,11.16
2018-04-28T00:56:43.207Z,11.19
2018-04-28T00:57:43.180Z,11.21
2018-04-28T00:58:43.153Z,11.21
2018-04-28T00:59:43.127Z,11.21
2018-04-28T01:00:43.101Z,11.23
2018-04-28T01:01:43.074Z,11.16
2018-04-28T01:02:43.050Z,11.19
2018-04-28T01:03:43.021Z,11.08
2018-04-28T01:04:42.995Z,11.06
2018-04-28T01:05:42.979Z,11.09
2018-04-28T01:06:42.941Z,11.01
2018-04-28T01:07:42.915Z,10.94
2018-04-28T01:08:42.889Z,10.93
2018-04-28T01:09:42.867Z,10.94
2018-04-28T01:10:42.835Z,10.91
2018-04-28T01:11:42.813Z,10.88
2018-04-28T01:12:42.782Z,10.88
2018-04-28T01:13:42.760Z,10.87
2018-04-28T01:14:42.732Z,10.83
2018-04-28T01:15:42.704Z,10.70
2018-04-28T01:16:42.676Z,10.83
2018-04-28T01:17:42.649Z,10.80
2018-04-28T01:18:42.622Z,10.81
2018-04-28T01:19:42.597Z,10.84
2018-04-28T01:20:42.572Z,10.83
2018-04-28T01:21:42.546Z,10.83
2018-04-28T01:22:42.519Z,10.84
2018-04-28T01:23:42.491Z,10.80
2018-04-28T01:24:42.463Z,10.83
2018-04-28T01:25:42.435Z,10.84
2018-04-28T01:26:42.417Z,10.87
2018-04-28T01:27:42.383Z,10.86
2018-04-28T01:28:42.360Z,10.84
2018-04-28T01:29:42.329Z,10.80
2018-04-28T01:30:42.305Z,10.69
2018-04-28T01:31:42.280Z,10.69
2018-04-28T01:32:42.249Z,10.70
2018-04-28T01:33:42.222Z,10.76
2018-04-28T01:34:42.195Z,10.80
2018-04-28T01:35:42.174Z,10.83
2018-04-28T01:36:42.142Z,10.78
2018-04-28T01:37:42.115Z,10.88
2018-04-28T01:38:42.091Z,10.84
2018-04-28T01:39:42.062Z,10.80
2018-04-28T01:40:42.036Z,10.84
2018-04-28T01:41:42.008Z,10.76
2018-04-28T01:42:41.986Z,10.84
2018-04-28T01:43:41.955Z,10.80
2018-04-28T01:44:41.929Z,10.83
2018-04-28T01:45:41.901Z,10.83
2018-04-28T01:46:41.875Z,10.80
2018-04-28T01:47:41.848Z,10.84
2018-04-28T01:48:41.823Z,10.78
2018-04-28T01:49:41.795Z,10.65
2018-04-28T01:50:41.767Z,10.73
2018-04-28T01:51:41.742Z,10.70
2018-04-28T01:52:41.720Z,10.72
2018-04-28T01:53:41.687Z,10.72
2018-04-28T01:54:41.661Z,10.65
2018-04-28T01:55:42.017Z,10.78
2018-04-28T01:56:41.608Z,10.69
2018-04-28T01:57:41.583Z,10.68
2018-04-28T01:58:41.556Z,10.70
2018-04-28T01:59:41.528Z,10.70
2018-04-28T02:00:41.502Z,10.72
2018-04-28T02:01:41.477Z,10.69
2018-04-28T02:02:41.448Z,10.66
2018-04-28T02:03:41.433Z,10.68
2018-04-28T02:04:41.395Z,10.63
2018-04-28T02:05:41.369Z,10.68
2018-04-28T02:06:41.340Z,10.60
2018-04-28T02:07:41.314Z,10.63
2018-04-28T02:08:41.297Z,10.65
2018-04-28T02:09:41.260Z,10.70
2018-04-28T02:10:41.234Z,10.68
2018-04-28T02:11:41.207Z,10.63
2018-04-28T02:12:41.181Z,10.70
2018-04-28T02:13:41.152Z,10.57
2018-04-28T02:14:41.126Z,10.55
2018-04-28T02:15:41.100Z,10.57
2018-04-28T02:16:41.073Z,10.52
2018-04-28T02:17:41.047Z,10.54
2018-04-28T02:18:41.031Z,10.55
2018-04-28T02:19:40.992Z,10.62
2018-04-28T02:20:40.966Z,10.54
2018-04-28T02:21:40.938Z,10.65
2018-04-28T02:22:40.911Z,10.47
2018-04-28T02:23:40.888Z,10.55
2018-04-28T02:24:40.858Z,10.52
2018-04-28T02:25:40.831Z,10.54
2018-04-28T02:26:40.804Z,10.52
2018-04-28T02:27:40.777Z,10.58
2018-04-28T02:28:40.755Z,10.57
2018-04-28T02:29:40.723Z,10.57
2018-04-28T02:30:40.697Z,10.65
2018-04-28T02:31:40.670Z,10.52
2018-04-28T02:32:40.643Z,10.65
2018-04-28T02:33:40.616Z,10.70
2018-04-28T02:34:40.594Z,10.57
2018-04-28T02:35:40.562Z,10.47
2018-04-28T02:36:40.536Z,10.52
2018-04-28T02:37:40.508Z,10.58
2018-04-28T02:38:40.484Z,10.65
2018-04-28T02:39:40.460Z,10.62
2018-04-28T02:40:40.428Z,10.51
2018-04-28T02:41:40.404Z,10.52
2018-04-28T02:42:40.374Z,10.68
2018-04-28T02:43:40.347Z,10.69
2018-04-28T02:44:40.321Z,10.72
2018-04-28T02:45:40.293Z,10.69
2018-04-28T02:46:40.267Z,10.69
2018-04-28T02:47:40.242Z,10.76
2018-04-28T02:48:40.213Z,10.72
2018-04-28T02:49:40.187Z,10.63
2018-04-28T02:50:40.172Z,10.70
2018-04-28T02:51:40.134Z,10.70
2018-04-28T02:52:40.106Z,10.72
2018-04-28T02:53:40.081Z,10.69
2018-04-28T02:54:40.053Z,10.83
2018-04-28T02:55:40.032Z,10.70
2018-04-28T02:56:40.000Z,10.68
2018-04-28T02:57:39.972Z,10.70
2018-04-28T02:58:39.949Z,10.66
2018-04-28T02:59:39.920Z,10.69
2018-04-28T03:00:39.893Z,10.66
2018-04-28T03:01:39.865Z,10.65
2018-04-28T03:02:39.839Z,10.68
2018-04-28T03:03:39.814Z,10.69
2018-04-28T03:04:39.787Z,10.62
2018-04-28T03:05:39.758Z,10.66
2018-04-28T03:06:39.731Z,10.76
2018-04-28T03:07:39.706Z,10.72
2018-04-28T03:08:39.680Z,10.81
2018-04-28T03:09:39.654Z,10.68
2018-04-28T03:10:39.626Z,10.73
2018-04-28T03:11:39.599Z,10.70
2018-04-28T03:12:39.572Z,10.68
2018-04-28T03:13:39.546Z,10.72
2018-04-28T03:14:39.524Z,10.66
2018-04-28T03:15:39.493Z,10.65
2018-04-28T03:16:39.466Z,10.68
2018-04-28T03:17:39.439Z,10.65
2018-04-28T03:18:39.415Z,10.58
2018-04-28T03:19:39.386Z,10.52
2018-04-28T03:20:39.360Z,10.52
2018-04-28T03:21:39.332Z,10.57
2018-04-28T03:22:39.305Z,10.46
2018-04-28T03:23:39.279Z,10.49
2018-04-28T03:24:39.253Z,10.52
2018-04-28T03:25:39.226Z,10.47
2018-04-28T03:26:39.200Z,10.51
2018-04-28T03:27:39.173Z,10.51
2018-04-28T03:28:39.147Z,10.38
2018-04-28T03:29:39.126Z,10.43
2018-04-28T03:30:39.094Z,10.39
2018-04-28T03:31:39.067Z,10.46
2018-04-28T03:32:39.042Z,10.39
2018-04-28T03:33:39.033Z,10.46
2018-04-28T03:34:38.992Z,10.51
2018-04-28T03:35:38.963Z,10.47
2018-04-28T03:36:38.938Z,10.49
2018-04-28T03:37:38.910Z,10.47
2018-04-28T03:38:38.881Z,10.57
2018-04-28T03:39:38.856Z,10.54
2018-04-28T03:40:38.828Z,10.54
2018-04-28T03:41:38.801Z,10.54
2018-04-28T03:42:38.775Z,10.51
2018-04-28T03:43:38.749Z,10.55
2018-04-28T03:44:38.723Z,10.57
2018-04-28T03:45:38.699Z,10.54
2018-04-28T03:46:38.672Z,10.57
2018-04-28T03:47:38.643Z,10.51
2018-04-28T03:48:38.615Z,10.62
2018-04-28T03:49:38.588Z,10.44
2018-04-28T03:50:38.566Z,10.52
2018-04-28T03:51:38.535Z,10.46
2018-04-28T03:52:38.512Z,10.51
2018-04-28T03:53:38.484Z,10.36
2018-04-28T03:54:38.458Z,10.43
2018-04-28T03:55:38.428Z,10.35
2018-04-28T03:56:38.402Z,10.42
2018-04-28T03:57:38.375Z,10.43
2018-04-28T03:58:38.348Z,10.34
2018-04-28T03:59:38.321Z,10.46
2018-04-28T04:00:38.295Z,10.36
2018-04-28T04:01:38.268Z,10.39
2018-04-28T04:02:38.241Z,10.43
2018-04-28T04:03:38.220Z,10.44
2018-04-28T04:04:38.191Z,10.43
2018-04-28T04:05:38.167Z,10.32
2018-04-28T04:06:38.134Z,10.42
2018-04-28T04:07:38.109Z,10.38
2018-04-28T04:08:38.081Z,10.47
2018-04-28T04:09:38.053Z,10.43
2018-04-28T04:10:38.031Z,10.44
2018-04-28T04:11:38.003Z,10.43
2018-04-28T04:12:37.973Z,10.47
2018-04-28T04:13:37.946Z,10.34
2018-04-28T04:14:37.920Z,10.42
2018-04-28T04:15:37.893Z,10.39
2018-04-28T04:16:37.871Z,10.35
2018-04-28T04:17:37.840Z,10.28
2018-04-28T04:18:37.814Z,10.35
2018-04-28T04:19:37.790Z,10.22
2018-04-28T04:20:37.761Z,10.29
2018-04-28T04:21:37.732Z,10.29
2018-04-28T04:22:37.705Z,10.28
2018-04-28T04:23:37.678Z,10.29
2018-04-28T04:24:37.659Z,10.31
2018-04-28T04:25:37.626Z,10.18
2018-04-28T04:26:37.600Z,10.13
2018-04-28T04:27:37.571Z,10.11
2018-04-28T04:28:37.544Z,10.16
2018-04-28T04:29:37.517Z,10.24
2018-04-28T04:30:37.490Z,10.26
2018-04-28T04:31:37.463Z,10.26
2018-04-28T04:32:37.438Z,10.39
2018-04-28T04:33:37.411Z,10.49
2018-04-28T04:34:37.386Z,10.65
2018-04-28T04:35:37.356Z,10.66
2018-04-28T04:36:37.329Z,10.69
2018-04-28T04:37:37.380Z,10.73
2018-04-28T04:38:37.275Z,10.69
2018-04-28T04:39:37.250Z,10.69
2018-04-28T04:40:37.223Z,10.55
2018-04-28T04:41:37.198Z,10.49
2018-04-28T04:42:37.169Z,10.49
2018-04-28T04:43:37.142Z,10.32
2018-04-28T04:44:37.121Z,10.17
2018-04-28T04:45:37.089Z,10.17
2018-04-28T04:46:37.064Z,10.17
2018-04-28T04:47:37.036Z,10.52
2018-04-28T04:48:37.013Z,10.69
2018-04-28T04:49:36.983Z,10.93
2018-04-28T04:50:36.956Z,11.05
2018-04-28T04:51:36.930Z,11.11
2018-04-28T04:52:36.903Z,11.36
2018-04-28T04:53:36.876Z,11.48
2018-04-28T04:54:36.856Z,11.78
2018-04-28T04:55:36.825Z,11.63
2018-04-28T04:56:36.798Z,12.00
2018-04-28T04:57:36.771Z,11.82
2018-04-28T04:58:36.745Z,12.07
2018-04-28T04:59:36.721Z,11.94
2018-04-28T05:00:36.694Z,11.78
2018-04-28T05:01:36.666Z,11.87
2018-04-28T05:02:36.641Z,11.98
2018-04-28T05:03:36.615Z,12.04
2018-04-28T05:04:36.589Z,12.59
2018-04-28T05:05:36.563Z,12.96
2018-04-28T05:06:36.538Z,13.04
2018-04-28T05:07:36.514Z,12.87
2018-04-28T05:08:36.527Z,12.95
2018-04-28T05:09:36.460Z,13.04
2018-04-28T05:10:36.435Z,13.04
2018-04-28T05:11:36.410Z,13.10
2018-04-28T05:12:36.384Z,12.71
2018-04-28T05:13:36.359Z,12.22
2018-04-28T05:14:36.336Z,12.43
2018-04-28T05:15:36.310Z,12.67
2018-04-28T05:16:36.285Z,12.61
2018-04-28T05:17:36.257Z,12.94
2018-04-28T05:18:36.233Z,12.84
2018-04-28T05:19:36.210Z,12.84
2018-04-28T05:20:36.183Z,12.55
2018-04-28T05:21:36.159Z,12.34
2018-04-28T05:22:36.134Z,12.46
2018-04-28T05:23:36.115Z,12.77
2018-04-28T05:24:36.084Z,12.88
2018-04-28T05:25:36.060Z,13.04
2018-04-28T05:26:36.036Z,12.91
2018-04-28T05:27:36.011Z,12.96
2018-04-28T05:28:35.985Z,12.66
2018-04-28T05:29:35.959Z,12.91
2018-04-28T05:30:35.940Z,13.09
2018-04-28T05:31:35.911Z,13.35
2018-04-28T05:32:35.893Z,13.31
2018-04-28T05:33:35.861Z,13.17
2018-04-28T05:34:35.840Z,13.28
2018-04-28T05:35:35.814Z,13.35
2018-04-28T05:36:35.790Z,13.44
2018-04-28T05:37:35.765Z,13.83
2018-04-28T05:38:35.745Z,13.83
2018-04-28T05:39:35.716Z,14.04
2018-04-28T05:40:35.694Z,13.98
2018-04-28T05:41:35.668Z,14.05
2018-04-28T05:42:35.644Z,14.17
2018-04-28T05:43:35.620Z,14.06
2018-04-28T05:44:35.597Z,13.17
2018-04-28T05:45:35.573Z,13.61
2018-04-28T05:46:35.549Z,13.61
2018-04-28T05:47:35.526Z,13.91
2018-04-28T05:48:35.503Z,14.44
2018-04-28T05:49:35.479Z,14.39
2018-04-28T05:50:35.456Z,14.24
2018-04-28T05:51:35.433Z,13.76
2018-04-28T05:52:35.420Z,13.66
2018-04-28T05:53:35.386Z,13.68
2018-04-28T05:54:35.364Z,13.31
2018-04-28T05:55:35.341Z,13.29
2018-04-28T05:56:35.319Z,13.38
2018-04-28T05:57:35.295Z,13.13
2018-04-28T05:58:35.274Z,13.10
2018-04-28T05:59:35.250Z,12.77
2018-04-28T06:00:35.228Z,12.59
2018-04-28T06:01:35.204Z,12.54
2018-04-28T06:02:35.185Z,12.43
2018-04-28T06:03:35.168Z,12.55
2018-04-28T06:04:35.137Z,12.51
2018-04-28T06:05:35.112Z,12.54
2018-04-28T06:06:35.097Z,12.71
2018-04-28T06:07:35.070Z,12.85
2018-04-28T06:08:35.047Z,13.29
2018-04-28T06:09:35.022Z,13.32
2018-04-28T06:10:34.998Z,13.28
2018-04-28T06:11:34.975Z,13.10
2018-04-28T06:12:34.952Z,13.04
2018-04-28T06:13:34.929Z,13.14
2018-04-28T06:14:34.905Z,13.03
2018-04-28T06:15:34.883Z,13.50
2018-04-28T06:16:34.861Z,13.46
2018-04-28T06:17:34.843Z,13.43
2018-04-28T06:18:34.814Z,13.29
2018-04-28T06:19:34.802Z,13.25
2018-04-28T06:20:34.769Z,13.46
2018-04-28T06:21:34.745Z,13.50
2018-04-28T06:22:34.723Z,13.35
2018-04-28T06:23:34.700Z,13.17
2018-04-28T06:24:34.681Z,13.29
2018-04-28T06:25:34.655Z,13.09
2018-04-28T06:26:34.632Z,13.04
2018-04-28T06:27:34.610Z,13.21
2018-04-28T06:28:34.587Z,13.28
2018-04-28T06:29:34.563Z,13.55
2018-04-28T06:30:34.541Z,13.94
2018-04-28T06:31:34.522Z,14.53
2018-04-28T06:32:34.499Z,14.78
2018-04-28T06:33:34.479Z,14.94
2018-04-28T06:34:34.452Z,14.69
2018-04-28T06:35:34.432Z,14.66
2018-04-28T06:36:34.408Z,14.38
2018-04-28T06:37:34.385Z,14.57
2018-04-28T06:38:34.363Z,14.11
2018-04-28T06:39:34.346Z,14.09
2018-04-28T06:40:34.322Z,14.04
2018-04-28T06:41:34.298Z,13.76
2018-04-28T06:42:34.276Z,14.17
2018-04-28T06:43:34.258Z,14.35
2018-04-28T06:44:34.235Z,14.08
2018-04-28T06:45:34.211Z,14.06
2018-04-28T06:46:34.190Z,14.29
2018-04-28T06:47:34.168Z,14.87
2018-04-28T06:48:34.147Z,15.85
2018-04-28T06:49:34.124Z,15.99
2018-04-28T06:50:34.102Z,16.33
2018-04-28T06:51:34.082Z,16.70
2018-04-28T06:52:34.060Z,16.87
2018-04-28T06:53:34.038Z,16.98
2018-04-28T06:54:34.018Z,16.40
2018-04-28T06:55:33.996Z,15.74
2018-04-28T06:56:33.978Z,15.84
2018-04-28T06:57:33.958Z,15.88
2018-04-28T06:58:33.953Z,15.84
2018-04-28T06:59:33.932Z,16.27
2018-04-28T07:00:33.893Z,16.55
2018-04-28T07:01:33.873Z,17.05
2018-04-28T07:02:33.853Z,16.91
2018-04-28T07:03:33.833Z,17.36
2018-04-28T07:04:33.840Z,17.66
2018-04-28T07:05:33.795Z,17.95
2018-04-28T07:06:33.773Z,17.39
2018-04-28T07:07:33.753Z,17.43
2018-04-28T07:08:33.735Z,16.91
2018-04-28T07:09:33.715Z,16.75
2018-04-28T07:10:33.698Z,16.80
2018-04-28T07:11:33.677Z,16.66
2018-04-28T07:12:33.659Z,16.80
2018-04-28T07:13:33.638Z,16.87
2018-04-28T07:14:33.619Z,16.52
2018-04-28T07:15:33.603Z,16.63
2018-04-28T07:16:33.587Z,16.52
2018-04-28T07:17:33.569Z,16.18
2018-04-28T07:18:33.545Z,15.92
2018-04-28T07:19:33.526Z,15.92
2018-04-28T07:20:33.506Z,16.17
2018-04-28T07:21:33.495Z,16.04
2018-04-28T07:22:33.473Z,16.03
2018-04-28T07:23:33.449Z,16.22
2018-04-28T07:24:33.430Z,16.36
2018-04-28T07:25:33.411Z,16.65
2018-04-28T07:26:33.392Z,16.52
2018-04-28T07:27:33.373Z,16.73
2018-04-28T07:28:33.359Z,17.54
2018-04-28T07:29:33.335Z,17.86
2018-04-28T07:30:33.315Z,17.43
2018-04-28T07:31:33.297Z,18.05
2018-04-28T07:32:33.284Z,18.50
2018-04-28T07:33:33.258Z,19.21
2018-04-28T07:34:33.240Z,19.02
2018-04-28T07:35:33.226Z,18.41
2018-04-28T07:36:33.203Z,18.13
2018-04-28T07:37:33.184Z,17.92
2018-04-28T07:38:33.165Z,17.79
2018-04-28T07:39:33.148Z,18.07
2018-04-28T07:40:33.130Z,18.56
2018-04-28T07:41:33.111Z,18.72
2018-04-28T07:42:33.096Z,18.01
2018-04-28T07:43:33.077Z,17.63
2018-04-28T07:44:33.058Z,17.38
2018-04-28T07:45:33.040Z,17.42
2018-04-28T07:46:33.023Z,17.83
2018-04-28T07:47:33.035Z,18.41
2018-04-28T07:48:32.993Z,17.89
2018-04-28T07:49:32.970Z,17.00
2018-04-28T07:50:32.953Z,16.67
2018-04-28T07:51:32.940Z,17.33
2018-04-28T07:52:32.917Z,18.13
2018-04-28T07:53:32.902Z,18.44
2018-04-28T07:54:32.888Z,18.71
2018-04-28T07:55:32.864Z,18.94
2018-04-28T07:56:32.847Z,19.42
2018-04-28T07:57:32.829Z,19.30
2018-04-28T07:58:32.812Z,18.59
2018-04-28T07:59:32.794Z,18.36
2018-04-28T08:00:32.779Z,17.99
2018-04-28T08:01:32.767Z,18.86
2018-04-28T08:02:32.743Z,18.69
2018-04-28T08:03:32.726Z,18.91
2018-04-28T08:04:32.711Z,19.52
2018-04-28T08:05:32.694Z,19.55
2018-04-28T08:06:32.675Z,20.00
2018-04-28T08:07:32.663Z,20.22
2018-04-28T08:08:32.643Z,20.08
2018-04-28T08:09:32.625Z,19.85
2018-04-28T08:10:32.609Z,20.19
2018-04-28T08:11:32.594Z,20.01
2018-04-28T08:12:32.580Z,19.75
2018-04-28T08:13:32.560Z,19.87
2018-04-28T08:14:32.747Z,20.33
2018-04-28T08:15:32.529Z,20.05
2018-04-28T08:16:32.523Z,19.34
2018-04-28T08:17:32.497Z,19.28
2018-04-28T08:18:32.481Z,18.59
2018-04-28T08:19:32.466Z,18.87
2018-04-28T08:20:32.450Z,19.20
2018-04-28T08:21:32.635Z,18.94
2018-04-28T08:22:32.420Z,19.34
2018-04-28T08:23:32.408Z,19.49
2018-04-28T08:24:32.386Z,19.43
2018-04-28T08:25:32.377Z,19.79
2018-04-28T08:26:32.395Z,20.40
2018-04-28T08:27:32.338Z,20.78
2018-04-28T08:28:32.322Z,21.68
2018-04-28T08:29:32.309Z,22.21
2018-04-28T08:30:32.291Z,22.35
2018-04-28T08:31:32.277Z,21.75
2018-04-28T08:32:32.464Z,22.20
2018-04-28T08:33:32.245Z,21.93
2018-04-28T08:34:32.233Z,20.57
2018-04-28T08:35:32.217Z,18.76
2018-04-28T08:36:32.200Z,17.98
2018-04-28T08:37:32.190Z,17.79
2018-04-28T08:38:32.171Z,17.25
2018-04-28T08:39:32.160Z,17.30
2018-04-28T08:40:32.196Z,17.39
2018-04-28T08:41:32.123Z,17.65
2018-04-28T08:42:32.156Z,18.14
2018-04-28T08:43:32.096Z,18.16
2018-04-28T08:44:32.109Z,17.40
2018-04-28T08:45:32.081Z,16.91
2018-04-28T08:46:32.043Z,17.43
2018-04-28T08:47:32.027Z,17.91
2018-04-28T08:48:32.015Z,17.92
2018-04-28T08:49:31.993Z,17.51
2018-04-28T08:50:31.977Z,17.86
2018-04-28T08:51:31.962Z,17.91
2018-04-28T08:52:31.944Z,17.91
2018-04-28T08:53:31.929Z,17.77
2018-04-28T08:54:31.911Z,17.80
2018-04-28T08:55:31.894Z,17.84
2018-04-28T08:56:31.878Z,17.25
2018-04-28T08:57:31.861Z,17.35
2018-04-28T08:58:31.845Z,17.25
2018-04-28T08:59:31.828Z,17.53
2018-04-28T09:00:31.818Z,17.53
2018-04-28T09:01:31.798Z,17.73
2018-04-28T09:02:31.779Z,17.70
2018-04-28T09:03:31.770Z,17.89
2018-04-28T09:04:31.747Z,18.16
2018-04-28T09:05:31.734Z,18.10
2018-04-28T09:06:31.719Z,18.32
2018-04-28T09:07:31.697Z,18.54
2018-04-28T09:08:31.687Z,18.54
2018-04-28T09:09:31.663Z,18.19
2018-04-28T09:10:31.647Z,18.56
2018-04-28T09:11:31.633Z,18.69
2018-04-28T09:12:31.618Z,18.91
2018-04-28T09:13:31.607Z,18.79
2018-04-28T09:14:31.582Z,18.46
2018-04-28T09:15:31.571Z,17.96
2018-04-28T09:16:31.551Z,17.65
2018-04-28T09:17:31.535Z,17.81
2018-04-28T09:18:31.519Z,17.79
2018-04-28T09:19:31.520Z,18.01
2018-04-28T09:20:31.496Z,18.13
2018-04-28T09:21:31.471Z,17.91
2018-04-28T09:22:31.457Z,18.35
2018-04-28T09:23:31.441Z,18.25
2018-04-28T09:24:31.425Z,18.50
2018-04-28T09:25:31.409Z,18.68
2018-04-28T09:26:31.393Z,18.41
2018-04-28T09:27:31.387Z,18.53
2018-04-28T09:28:31.363Z,18.29
2018-04-28T09:29:31.346Z,18.42
2018-04-28T09:30:31.331Z,18.56
2018-04-28T09:31:31.316Z,18.76
2018-04-28T09:32:31.299Z,18.83
2018-04-28T09:33:31.283Z,19.06
2018-04-28T09:34:31.267Z,19.06
2018-04-28T09:35:31.253Z,19.21
2018-04-28T09:36:31.237Z,18.84
2018-04-28T09:37:31.221Z,18.17
2018-04-28T09:38:31.206Z,17.92
2018-04-28T09:39:31.191Z,18.14
2018-04-28T09:40:31.176Z,17.91
2018-04-28T09:41:31.159Z,17.99
2018-04-28T09:42:31.144Z,18.09
2018-04-28T09:43:31.128Z,18.29
2018-04-28T09:44:31.113Z,18.53
2018-04-28T09:45:31.106Z,18.17
2018-04-28T09:46:31.080Z,17.47
2018-04-28T09:47:31.062Z,17.09
2018-04-28T09:48:31.045Z,17.21
2018-04-28T09:49:31.028Z,17.39
2018-04-28T09:50:31.011Z,17.10
2018-04-28T09:51:30.998Z,17.27
2018-04-28T09:52:30.977Z,17.33
2018-04-28T09:53:30.957Z,17.28
2018-04-28T09:54:30.939Z,17.20
2018-04-28T09:55:30.921Z,17.12
2018-04-28T09:56:30.903Z,17.27
2018-04-28T09:57:30.887Z,17.10
2018-04-28T09:58:30.869Z,17.20
2018-04-28T09:59:30.846Z,17.39
2018-04-28T10:00:30.831Z,17.45
2018-04-28T10:01:30.806Z,17.66
2018-04-28T10:02:30.787Z,17.79
2018-04-28T10:03:30.768Z,17.86
2018-04-28T10:04:30.749Z,17.84
2018-04-28T10:05:30.729Z,17.83
2018-04-28T10:06:30.710Z,18.44
2018-04-28T10:07:30.693Z,18.42
2018-04-28T10:08:30.672Z,18.50
2018-04-28T10:09:30.655Z,18.59
2018-04-28T10:10:30.634Z,17.89
2018-04-28T10:11:30.616Z,17.63
2018-04-28T10:12:30.598Z,18.14
2018-04-28T10:13:30.579Z,18.69
2018-04-28T10:14:30.572Z,19.02
2018-04-28T10:15:30.548Z,19.31
2018-04-28T10:16:30.527Z,19.43
2018-04-28T10:17:30.510Z,19.46
2018-04-28T10:18:30.493Z,18.64
2018-04-28T10:19:30.477Z,18.19
2018-04-28T10:20:30.461Z,17.96
2018-04-28T10:21:30.444Z,17.79
2018-04-28T10:22:30.427Z,17.83
2018-04-28T10:23:30.417Z,18.07
2018-04-28T10:24:30.393Z,18.09
2018-04-28T10:25:30.379Z,18.02
2018-04-28T10:26:30.358Z,18.57
2018-04-28T10:27:30.340Z,17.83
2018-04-28T10:28:30.324Z,17.81
2018-04-28T10:29:30.306Z,17.47
2018-04-28T10:30:30.289Z,17.63
2018-04-28T10:31:30.271Z,17.54
2018-04-28T10:32:30.253Z,17.47
2018-04-28T10:33:30.234Z,17.46
2018-04-28T10:34:30.221Z,18.26
2018-04-28T10:35:30.208Z,18.53
2018-04-28T10:36:30.181Z,18.76
2018-04-28T10:37:30.162Z,18.90
2018-04-28T10:38:30.144Z,18.36
2018-04-28T10:39:30.127Z,17.87
2018-04-28T10:40:30.114Z,17.92
2018-04-28T10:41:30.092Z,17.89
2018-04-28T10:42:30.075Z,18.54
2018-04-28T10:43:30.058Z,18.35
2018-04-28T10:44:30.041Z,18.39
2018-04-28T10:45:30.031Z,18.59
2018-04-28T10:46:30.070Z,19.21
2018-04-28T10:47:30.006Z,18.93
2018-04-28T10:48:29.976Z,19.12
2018-04-28T10:49:30.159Z,19.35
2018-04-28T10:50:30.143Z,19.21
2018-04-28T10:51:29.932Z,19.16
2018-04-28T10:52:29.909Z,19.31
2018-04-28T10:53:29.899Z,19.45
2018-04-28T10:54:29.926Z,19.60
2018-04-28T10:55:29.866Z,19.52
2018-04-28T10:56:29.851Z,18.83
2018-04-28T10:57:29.833Z,18.75
2018-04-28T10:58:29.818Z,18.90
2018-04-28T10:59:29.803Z,18.47
2018-04-28T11:00:29.788Z,18.39
2018-04-28T11:01:29.772Z,18.16
2018-04-28T11:02:29.757Z,17.92
2018-04-28T11:03:30.492Z,17.84
2018-04-28T11:04:29.728Z,17.86
2018-04-28T11:05:29.797Z,17.80
2018-04-28T11:06:29.694Z,17.71
2018-04-28T11:07:29.677Z,17.71
2018-04-28T11:08:29.666Z,17.49
2018-04-28T11:09:29.644Z,17.58
2018-04-28T11:10:29.623Z,17.81
2018-04-28T11:11:29.605Z,17.66
2018-04-28T11:12:29.591Z,17.65
2018-04-28T11:13:29.568Z,17.74
2018-04-28T11:14:29.590Z,17.89
2018-04-28T11:15:29.533Z,17.80
2018-04-28T11:16:29.513Z,17.62
2018-04-28T11:17:29.512Z,17.76
2018-04-28T11:18:29.476Z,17.66
2018-04-28T11:19:29.457Z,17.51
2018-04-28T11:20:29.438Z,17.62
2018-04-28T11:21:29.418Z,17.57
2018-04-28T11:22:29.398Z,17.42
2018-04-28T11:23:29.379Z,17.36
2018-04-28T11:24:29.361Z,17.35
2018-04-28T11:25:29.352Z,17.25
2018-04-28T11:26:29.320Z,17.20
2018-04-28T11:27:29.300Z,17.17
2018-04-28T11:28:29.281Z,17.10
2018-04-28T11:29:29.261Z,16.98
2018-04-28T11:30:29.242Z,16.98
2018-04-28T11:31:29.229Z,16.99
2018-04-28T11:32:29.201Z,17.02
2018-04-28T11:33:29.177Z,16.85
2018-04-28T11:34:29.156Z,16.91
2018-04-28T11:35:29.136Z,16.87
2018-04-28T11:36:29.117Z,16.90
2018-04-28T11:37:29.100Z,16.91
2018-04-28T11:38:29.106Z,16.96
2018-04-28T11:39:29.051Z,16.87
2018-04-28T11:40:29.031Z,16.96
2018-04-28T11:41:29.007Z,16.92
2018-04-28T11:42:28.986Z,16.82
2018-04-28T11:43:28.965Z,16.84
2018-04-28T11:44:28.945Z,17.07
2018-04-28T11:45:28.927Z,16.92
2018-04-28T11:46:28.903Z,16.90
2018-04-28T11:47:28.879Z,16.96
2018-04-28T11:48:28.859Z,17.05
2018-04-28T11:49:28.835Z,17.10
2018-04-28T11:50:28.814Z,17.18
2018-04-28T11:51:28.794Z,17.30
2018-04-28T11:52:28.771Z,17.40
2018-04-28T11:53:28.751Z,17.71
2018-04-28T11:54:28.729Z,17.77
2018-04-28T11:55:28.708Z,17.54
2018-04-28T11:56:28.687Z,17.36
2018-04-28T11:57:28.665Z,17.38
2018-04-28T11:58:28.646Z,17.07
2018-04-28T11:59:28.633Z,17.15
2018-04-28T12:00:28.605Z,17.25
2018-04-28T12:01:28.591Z,17.17
2018-04-28T12:02:28.563Z,17.05
2018-04-28T12:03:28.544Z,16.90
2018-04-28T12:04:28.523Z,16.91
2018-04-28T12:05:28.505Z,16.81
2018-04-28T12:06:28.483Z,16.73
2018-04-28T12:07:28.460Z,16.77
2018-04-28T12:08:28.443Z,16.78
2018-04-28T12:09:28.418Z,16.65
2018-04-28T12:10:28.398Z,16.66
2018-04-28T12:11:28.377Z,16.63
2018-04-28T12:12:28.357Z,16.72
2018-04-28T12:13:28.334Z,16.78
2018-04-28T12:14:28.313Z,16.57
2018-04-28T12:15:28.335Z,16.52
2018-04-28T12:16:28.277Z,16.62
2018-04-28T12:17:28.251Z,16.52
2018-04-28T12:18:28.229Z,16.54
2018-04-28T12:19:28.205Z,16.59
2018-04-28T12:20:28.234Z,16.54
2018-04-28T12:21:28.162Z,16.63
2018-04-28T12:22:28.140Z,16.62
2018-04-28T12:23:28.121Z,16.72
2018-04-28T12:24:28.098Z,16.81
2018-04-28T12:25:28.072Z,16.82
2018-04-28T12:26:28.051Z,16.77
2018-04-28T12:27:28.051Z,16.75
2018-04-28T12:28:28.007Z,16.85
2018-04-28T12:29:27.984Z,17.06
2018-04-28T12:30:27.963Z,17.05
2018-04-28T12:31:27.942Z,17.10
2018-04-28T12:32:27.925Z,17.06
2018-04-28T12:33:27.897Z,17.22
2018-04-28T12:34:27.882Z,17.20
2018-04-28T12:35:27.855Z,17.20
2018-04-28T12:36:27.834Z,17.15
2018-04-28T12:37:27.812Z,17.20
2018-04-28T12:38:27.793Z,17.22
2018-04-28T12:39:27.771Z,17.22
2018-04-28T12:40:27.751Z,17.27
2018-04-28T12:41:27.729Z,17.51
2018-04-28T12:42:27.707Z,17.70
2018-04-28T12:43:27.688Z,17.80
2018-04-28T12:44:27.668Z,17.71
2018-04-28T12:45:27.647Z,17.74
2018-04-28T12:46:27.627Z,17.62
2018-04-28T12:47:27.608Z,17.81
2018-04-28T12:48:27.589Z,17.76
2018-04-28T12:49:27.568Z,17.83
2018-04-28T12:50:27.554Z,18.25
2018-04-28T12:51:27.531Z,18.19
2018-04-28T12:52:27.512Z,17.87